This is the latest recevied weather packets stored in our database for station/object KB0BS-13. If no packets are shown the sender has not sent any weather packets the latest 10 day(s).
| Time | Temp. | Humidity | Pressure | Rain* | Wind** | Luminosity | Snow |
|---|---|---|---|---|---|---|---|
| 1777736717 | 7.78° C | 43% | 1017.3 hPa | 0 mm | - | 644 W/m² | - |
| 1777736072 | 7.22° C | 44% | 1017.3 hPa | 0 mm | - | 627 W/m² | - |
| 1777735769 | 7.22° C | 39% | 1017.3 hPa | 0 mm | - | 622 W/m² | - |
| 1777735466 | 7.22° C | 41% | 1017.2 hPa | 0 mm | - | 618 W/m² | - |
| 1777735164 | 6.67° C | 46% | 1017.3 hPa | 0 mm | - | 624 W/m² | - |
| 1777734860 | 6.67° C | 42% | 1017.1 hPa | 0 mm | - | 647 W/m² | - |
| 1777734558 | 6.67° C | 39% | 1017.4 hPa | 0 mm | - | 618 W/m² | - |
| 1777734254 | 6.67° C | 43% | 1017.6 hPa | 0 mm | - | 600 W/m² | - |
| 1777733951 | 5.56° C | 52% | 1017.4 hPa | 0 mm | - | 633 W/m² | - |
| 1777733648 | 6.67° C | 49% | 1017.3 hPa | 0 mm | - | 616 W/m² | - |
| 1777733344 | 6.11° C | 56% | 1017.4 hPa | 0 mm | - | 567 W/m² | - |
| 1777733041 | 6.11° C | 49% | 1017.4 hPa | 0 mm | - | 547 W/m² | - |
| 1777732737 | 6.11° C | 55% | 1017.5 hPa | 0 mm | - | 531 W/m² | - |
| 1777732434 | 5.56° C | 63% | 1017.5 hPa | 0 mm | - | 521 W/m² | - |
| 1777732132 | 5.56° C | 62% | 1017.6 hPa | 0 mm | - | 511 W/m² | - |
| 1777731828 | 5.56° C | 62% | 1017.6 hPa | 0 mm | - | 501 W/m² | - |
| 1777731525 | 5° C | 65% | 1017.8 hPa | 0 mm | - | 490 W/m² | - |
| 1777731223 | 5° C | 66% | 1017.8 hPa | 0 mm | - | 479 W/m² | - |
| 1777730920 | 4.44° C | 70% | 1017.9 hPa | 0 mm | - | 467 W/m² | - |
| 1777730618 | 4.44° C | 71% | 1017.8 hPa | 0 mm | - | 460 W/m² | - |
| 1777730314 | 4.44° C | 74% | 1018 hPa | 0 mm | - | 443 W/m² | - |
| 1777730011 | 3.89° C | 75% | 1017.9 hPa | 0 mm | - | 430 W/m² | - |
| 1777729707 | 3.89° C | 74% | 1017.9 hPa | 0 mm | - | 417 W/m² | - |
| 1777729404 | 3.89° C | 76% | 1018 hPa | 0 mm | - | 405 W/m² | - |
| 1777729100 | 3.33° C | 80% | 1018 hPa | 0 mm | - | 393 W/m² | - |
* Rain latest hour (hover to see other rain measurements)
** Current wind speed in m/s (hover to see current wind gust speed)